Portada
METAR-TAF:

METAR-TAF

Aeroports :

East Jakarta, Indonèsia

latitud: 06-15-59S, longitud: 106-53-28E, altitud: 25 m

Observació

L'informe es va fer fa 4 hores i 24 minuts, a les 12:00 UTC
Vent 3 kt del Sud-Est
Temperatura 25°C
Humitat 94%
Pressió 1009 hPa
Visibilitat: 4000 m
Núvols disperses a una alçada de 1800 ft
calitja, pluja

METAR: WIHH 191200Z 14003KT 4000 HZ SCT018 25/24 Q1009 RA TO S

Hora: 23:24 (16:24 UTC)

Pronòstic

L'informe es va fer fa 5 hores i 24 minuts, a les 11:00 UTC
Pronòstic vàlid del 19 a les 12 UTC al 20 a les 12 UTC
Vent 8 kt del Sud-Oest
Visibilitat: 5000 m
Núvols disperses a una alçada de 2000 ft
calitja
Temporalment
l' 19 a les 12 UTC al 19 a les 15 UTC
Visibilitat: 3000 m
Cel ennuvolat a una alçada de 1800 ft
pluja

TAF: WIHH 191100Z 1912/2012 22008KT 5000 HZ SCT020 TEMPO 1912/1915 3000 -RA BKN018

Observacions i pronòstics meteorològics de més de 4000 aeroports (METAR i TAF).

Les estacions disponibles són els punts grocs i vermells al mapa.

Posi el ratolí al punt desitjat per veure el nom de l'estació.

Feu clic per veure les observacions i els pronòstics meteorològics.

Per canviar el mapa: feu clic els botons verds amb una creu de color negre per apropar; al botó verd amb un guió per allunyar la imatge; o en les fletxes verdes per a mapes adjacents.


METAR-TAF: